Time;durP1;ratioP1;P1;durP2;ratioP2;P2;SDS_P1;SDS_P2;PMS_P1;PMS_P2;Temp;Humidity;BMP_temperature;BMP_pressure;BME280_temperature;BME280_humidity;BME280_pressure;Samples;Min_cycle;Max_cycle;Signal;HPM_P1;HPM_P2
2022/05/02 00:02:20;;;;;;;19.27;12.43;;;;;;;;;;5019706;28;20060;-74
2022/05/02 00:04:46;;;;;;;14.35;10.02;;;;;;;;;;5008313;28;20325;-73
2022/05/02 00:07:12;;;;;;;12.48;9.07;;;;;;;;;;5003128;28;20029;-74
2022/05/02 00:09:38;;;;;;;12.52;9.45;;;;;;;;;;5007741;28;20499;-74
2022/05/02 00:12:05;;;;;;;12.63;8.45;;;;;;;;;;5005813;28;20045;-73
2022/05/02 00:14:31;;;;;;;14.00;9.00;;;;;;;;;;5006805;28;20115;-74
2022/05/02 00:16:57;;;;;;;9.27;7.93;;;;;;;;;;5009347;28;20037;-74
2022/05/02 00:19:23;;;;;;;11.35;8.20;;;;;;;;;;5011704;28;20108;-73
2022/05/02 00:21:49;;;;;;;10.55;8.45;;;;;;;;;;5005761;28;20034;-74
2022/05/02 00:24:15;;;;;;;10.00;8.18;;;;;;;;;;5003244;28;20453;-74
2022/05/02 00:26:41;;;;;;;11.55;8.68;;;;;;;;;;5008123;28;20040;-73
2022/05/02 00:29:07;;;;;;;10.50;8.68;;;;;;;;;;5005696;28;20025;-73
2022/05/02 00:31:33;;;;;;;9.55;7.75;;;;;;;;;;5009706;28;20438;-73
2022/05/02 00:34:01;;;;;;;10.32;8.02;;;;;;;;;;5003897;28;20097;-72
2022/05/02 00:36:27;;;;;;;11.48;7.93;;;;;;;;;;5016077;28;20500;-73
2022/05/02 00:38:53;;;;;;;9.48;7.75;;;;;;;;;;5008328;28;20040;-73
2022/05/02 00:41:20;;;;;;;10.00;8.38;;;;;;;;;;5008474;28;20034;-73
2022/05/02 00:43:46;;;;;;;9.93;8.02;;;;;;;;;;5005750;28;20041;-74
2022/05/02 00:46:19;;;;;;;9.55;7.95;;;;;;;;;;5007060;28;20130;-73
2022/05/02 00:48:45;;;;;;;9.75;8.30;;;;;;;;;;5007150;28;20086;-73
2022/05/02 00:51:11;;;;;;;10.48;7.90;;;;;;;;;;5010629;28;20165;-73
2022/05/02 00:53:38;;;;;;;9.50;8.40;;;;;;;;;;5004212;28;20092;-73
2022/05/02 00:56:06;;;;;;;9.25;7.30;;;;;;;;;;5008021;28;20076;-73
2022/05/02 00:58:35;;;;;;;9.40;7.07;;;;;;;;;;4999638;28;20034;-73
2022/05/02 01:01:01;;;;;;;9.35;7.28;;;;;;;;;;4998005;28;20053;-73
2022/05/02 01:03:27;;;;;;;13.25;7.72;;;;;;;;;;5004566;28;20385;-74
2022/05/02 01:08:38;;;;;;;9.45;7.45;;;;;;;;;;5007501;28;20095;-72
2022/05/02 01:11:04;;;;;;;8.95;8.05;;;;;;;;;;5006630;28;20204;-73
2022/05/02 01:13:38;;;;;;;10.80;8.13;;;;;;;;;;5008610;28;20101;-72
2022/05/02 01:16:23;;;;;;;10.70;8.10;;;;;;;;;;5008149;28;20044;-73
2022/05/02 01:18:49;;;;;;;;;;;;;;;;;;4998150;28;20498;-74
2022/05/02 01:21:15;;;;;;;;;;;;;;;;;;4998973;28;20013;-74
2022/05/02 01:23:41;;;;;;;;;;;;;;;;;;5006165;28;19913;-73
2022/05/02 01:26:08;;;;;;;9.48;7.20;;;;;;;;;;5004029;28;19929;-73
2022/05/02 01:28:40;;;;;;;9.45;7.43;;;;;;;;;;5007625;28;20041;-73
2022/05/02 01:31:06;;;;;;;9.68;6.70;;;;;;;;;;5006140;28;20029;-74
2022/05/02 01:33:34;;;;;;;8.77;7.13;;;;;;;;;;5005523;28;20095;-74
2022/05/02 01:36:00;;;;;;;8.35;6.75;;;;;;;;;;5001905;28;20097;-73
2022/05/02 01:38:26;;;;;;;7.78;6.10;;;;;;;;;;5000091;28;20037;-73
2022/05/02 01:40:52;;;;;;;9.85;8.10;;;;;;;;;;5005188;28;20029;-73
2022/05/02 01:43:18;;;;;;;8.48;7.18;;;;;;;;;;5005717;28;20030;-73
2022/05/02 01:45:44;;;;;;;11.77;8.35;;;;;;;;;;4999835;28;20041;-74
2022/05/02 01:48:10;;;;;;;12.35;9.70;;;;;;;;;;5002892;28;20022;-73
2022/05/02 01:50:36;;;;;;;14.48;9.93;;;;;;;;;;5003049;28;20345;-74
2022/05/02 01:53:02;;;;;;;15.38;10.40;;;;;;;;;;5000981;28;20033;-75
2022/05/02 01:55:28;;;;;;;14.40;9.90;;;;;;;;;;5004661;28;20037;-74
2022/05/02 01:57:54;;;;;;;16.05;11.00;;;;;;;;;;5000994;28;20127;-74
2022/05/02 02:00:21;;;;;;;16.17;11.85;;;;;;;;;;5017090;28;20246;-72
2022/05/02 02:02:47;;;;;;;21.23;18.33;;;;;;;;;;5009181;28;20026;-72
2022/05/02 02:07:58;;;;;;;17.77;12.35;;;;;;;;;;5005824;28;20684;-74
2022/05/02 02:10:24;;;;;;;15.05;10.18;;;;;;;;;;5004905;28;20088;-74
2022/05/02 02:12:50;;;;;;;15.27;10.38;;;;;;;;;;5004601;28;20460;-74
2022/05/02 02:15:16;;;;;;;12.48;9.85;;;;;;;;;;5003457;28;20254;-74
2022/05/02 02:17:42;;;;;;;12.68;9.07;;;;;;;;;;5001052;28;20101;-73
2022/05/02 02:20:09;;;;;;;12.75;9.48;;;;;;;;;;5008646;28;20125;-74
2022/05/02 02:22:36;;;;;;;13.23;8.68;;;;;;;;;;5000252;28;20271;-73
2022/05/02 02:25:02;;;;;;;13.25;8.88;;;;;;;;;;4999758;28;20030;-75
2022/05/02 02:27:28;;;;;;;14.88;10.05;;;;;;;;;;5007377;28;20113;-74
2022/05/02 02:29:54;;;;;;;14.73;10.30;;;;;;;;;;5004405;28;20117;-73
2022/05/02 02:32:21;;;;;;;12.65;9.18;;;;;;;;;;5006233;28;20030;-73
2022/05/02 02:34:47;;;;;;;14.55;9.98;;;;;;;;;;5006808;28;20561;-73
2022/05/02 02:37:13;;;;;;;14.00;10.40;;;;;;;;;;5002992;28;20045;-74
2022/05/02 02:39:39;;;;;;;14.98;9.88;;;;;;;;;;5004967;28;20105;-73
2022/05/02 02:42:06;;;;;;;15.00;11.50;;;;;;;;;;5003747;28;20084;-73
2022/05/02 02:44:32;;;;;;;15.45;11.75;;;;;;;;;;4997769;28;20029;-73
2022/05/02 02:46:58;;;;;;;15.52;10.90;;;;;;;;;;5003488;28;20072;-73
2022/05/02 02:49:24;;;;;;;15.05;10.23;;;;;;;;;;4995554;28;20026;-73
2022/05/02 02:51:50;;;;;;;12.25;8.95;;;;;;;;;;5002914;28;20388;-73
2022/05/02 02:54:16;;;;;;;16.15;10.35;;;;;;;;;;5001905;28;20026;-73
2022/05/02 02:56:42;;;;;;;12.25;9.10;;;;;;;;;;5005283;28;20489;-73
2022/05/02 02:59:09;;;;;;;14.13;9.68;;;;;;;;;;5007556;28;20038;-74
2022/05/02 03:01:35;;;;;;;15.32;8.73;;;;;;;;;;5002271;28;20078;-72
2022/05/02 03:06:01;;;;;;;18.63;9.05;;;;;;;;;;5007122;28;20142;-72
2022/05/02 03:06:47;;;;;;;12.70;9.43;;;;;;;;;;5008959;28;20087;-73
2022/05/02 03:09:13;;;;;;;9.80;8.15;;;;;;;;;;5006469;28;20108;-73
2022/05/02 03:11:40;;;;;;;12.15;8.63;;;;;;;;;;5008047;28;20484;-72
2022/05/02 03:14:06;;;;;;;10.95;7.95;;;;;;;;;;5010109;28;20393;-74
2022/05/02 03:16:32;;;;;;;9.93;7.72;;;;;;;;;;5020977;28;20033;-73
2022/05/02 03:18:58;;;;;;;12.52;7.78;;;;;;;;;;5008067;28;20034;-75
2022/05/02 03:21:24;;;;;;;12.75;8.45;;;;;;;;;;5015728;28;20473;-74
2022/05/02 03:23:50;;;;;;;10.60;7.15;;;;;;;;;;5008134;28;20041;-73
2022/05/02 03:26:16;;;;;;;11.35;7.15;;;;;;;;;;5008393;28;20038;-74
2022/05/02 03:28:42;;;;;;;9.98;7.55;;;;;;;;;;5005954;28;20101;-73
2022/05/02 03:31:09;;;;;;;10.80;8.13;;;;;;;;;;5009334;28;20029;-74
2022/05/02 03:33:35;;;;;;;10.90;7.88;;;;;;;;;;5006845;28;20156;-74
2022/05/02 03:36:01;;;;;;;10.32;8.25;;;;;;;;;;5009242;28;20121;-73
2022/05/02 03:38:27;;;;;;;12.43;8.00;;;;;;;;;;5003272;28;21360;-74
2022/05/02 03:40:53;;;;;;;11.77;8.63;;;;;;;;;;5005943;28;20529;-73
2022/05/02 03:43:19;;;;;;;12.90;9.07;;;;;;;;;;5001556;28;20400;-74
2022/05/02 03:45:45;;;;;;;13.05;8.95;;;;;;;;;;5004400;28;20116;-74
2022/05/02 03:48:11;;;;;;;12.68;9.20;;;;;;;;;;5008323;28;20029;-74
2022/05/02 03:50:37;;;;;;;14.55;10.50;;;;;;;;;;5001048;28;20038;-73
2022/05/02 03:53:08;;;;;;;15.32;9.85;;;;;;;;;;5005806;28;20050;-72
2022/05/02 03:55:34;;;;;;;17.55;11.48;;;;;;;;;;5007127;28;20123;-72
2022/05/02 03:58:02;;;;;;;21.02;11.30;;;;;;;;;;5007424;28;20066;-73
2022/05/02 04:00:28;;;;;;;26.08;12.55;;;;;;;;;;5003527;28;20453;-74
2022/05/02 04:02:54;;;;;;;37.75;15.05;;;;;;;;;;5007017;28;20057;-73
2022/05/02 04:05:20;;;;;;;39.05;16.45;;;;;;;;;;5008547;28;20041;-74
2022/05/02 04:07:46;;;;;;;34.22;13.90;;;;;;;;;;5011491;28;20041;-73
2022/05/02 04:10:12;;;;;;;49.53;18.27;;;;;;;;;;5013809;28;20073;-73
2022/05/02 04:12:39;;;;;;;39.03;17.15;;;;;;;;;;5012942;28;20065;-76
2022/05/02 04:15:06;;;;;;;48.00;17.70;;;;;;;;;;5016643;28;20105;-74
2022/05/02 04:17:32;;;;;;;45.33;20.02;;;;;;;;;;5007503;28;20048;-73
2022/05/02 04:19:59;;;;;;;44.63;18.63;;;;;;;;;;5005848;28;20551;-73
2022/05/02 04:22:25;;;;;;;45.38;19.05;;;;;;;;;;5005032;28;20041;-74
2022/05/02 04:24:51;;;;;;;44.08;19.30;;;;;;;;;;5004500;28;20195;-73
2022/05/02 04:27:17;;;;;;;44.13;16.83;;;;;;;;;;5007748;28;20047;-73
2022/05/02 04:29:43;;;;;;;45.30;19.17;;;;;;;;;;5003624;28;20044;-73
2022/05/02 04:32:09;;;;;;;42.42;16.95;;;;;;;;;;5006934;28;20022;-73
2022/05/02 04:34:36;;;;;;;40.88;18.17;;;;;;;;;;5008778;28;20100;-73
2022/05/02 04:37:02;;;;;;;50.78;18.58;;;;;;;;;;5007715;28;20137;-73
2022/05/02 04:39:28;;;;;;;51.25;19.63;;;;;;;;;;5001177;28;20085;-73
2022/05/02 04:41:54;;;;;;;47.25;19.10;;;;;;;;;;5006053;28;20127;-74
2022/05/02 04:44:20;;;;;;;52.00;19.52;;;;;;;;;;5008684;28;20026;-73
2022/05/02 04:46:46;;;;;;;52.50;19.50;;;;;;;;;;5005930;28;20041;-74
2022/05/02 04:49:12;;;;;;;52.47;18.80;;;;;;;;;;5004336;28;20026;-73
2022/05/02 04:51:38;;;;;;;53.00;19.00;;;;;;;;;;5006419;28;20053;-74
2022/05/02 04:54:04;;;;;;;58.90;18.95;;;;;;;;;;5005914;28;20030;-72
2022/05/02 04:56:30;;;;;;;57.33;20.92;;;;;;;;;;5007613;28;20030;-74
2022/05/02 04:58:56;;;;;;;57.45;19.50;;;;;;;;;;5004929;28;20033;-73
2022/05/02 05:01:22;;;;;;;57.38;18.77;;;;;;;;;;5007825;28;20069;-76
2022/05/02 05:03:49;;;;;;;58.40;20.27;;;;;;;;;;5013064;28;20516;-72
2022/05/02 05:06:15;;;;;;;47.70;16.58;;;;;;;;;;5018886;28;20038;-72
2022/05/02 05:08:41;;;;;;;60.55;18.92;;;;;;;;;;5013079;28;20025;-72
2022/05/02 05:11:25;;;;;;;60.22;18.77;;;;;;;;;;5018373;28;20117;-74
2022/05/02 05:17:09;;;;;;;56.65;17.58;;;;;;;;;;5015217;28;20040;-72
2022/05/02 05:19:54;;;;;;;61.45;19.45;;;;;;;;;;5015919;28;20050;-74
2022/05/02 05:22:26;;;;;;;54.38;20.15;;;;;;;;;;5016288;28;20105;-71
2022/05/02 05:25:11;;;;;;;63.65;19.75;;;;;;;;;;5013198;28;20033;-72
2022/05/02 05:27:56;;;;;;;61.57;20.97;;;;;;;;;;5011558;28;20042;-74
2022/05/02 05:30:22;;;;;;;61.88;19.10;;;;;;;;;;5017229;28;20273;-73
2022/05/02 05:33:07;;;;;;;65.30;20.65;;;;;;;;;;5010314;28;20341;-72
2022/05/02 05:35:33;;;;;;;47.15;18.08;;;;;;;;;;5015694;28;20033;-72
2022/05/02 05:38:01;;;;;;;56.53;17.75;;;;;;;;;;5019824;28;20026;-72
2022/05/02 05:40:34;;;;;;;47.88;16.30;;;;;;;;;;5016010;28;20249;-73
2022/05/02 05:43:19;;;;;;;47.60;16.85;;;;;;;;;;5019429;28;20034;-73
2022/05/02 05:45:48;;;;;;;45.90;15.63;;;;;;;;;;5018067;28;20052;-73
2022/05/02 05:48:20;;;;;;;40.45;14.70;;;;;;;;;;5017184;28;20325;-72
2022/05/02 05:50:52;;;;;;;36.72;12.85;;;;;;;;;;5018715;28;20030;-73
2022/05/02 05:53:28;;;;;;;36.83;13.75;;;;;;;;;;5011901;28;20026;-73
2022/05/02 05:55:57;;;;;;;28.98;11.98;;;;;;;;;;5012740;28;20042;-73
2022/05/02 05:58:37;;;;;;;32.88;13.85;;;;;;;;;;5016579;28;20033;-73
2022/05/02 06:01:15;;;;;;;40.45;13.80;;;;;;;;;;5011796;28;20029;-72
2022/05/02 06:04:01;;;;;;;30.35;12.27;;;;;;;;;;5018430;28;21377;-74
2022/05/02 06:06:28;;;;;;;31.20;13.35;;;;;;;;;;5005825;28;20486;-73
2022/05/02 06:08:58;;;;;;;37.45;15.13;;;;;;;;;;5016334;28;20044;-73
2022/05/02 06:11:25;;;;;;;34.22;14.98;;;;;;;;;;5016477;28;20029;-74
2022/05/02 06:13:53;;;;;;;33.22;13.27;;;;;;;;;;5015044;28;20113;-73
2022/05/02 06:19:05;;;;;;;;;;;;;;;;;;5014819;28;20053;-72
2022/05/02 06:21:32;;;;;;;;;;;;;;;;;;5016217;28;19964;-71
2022/05/02 06:23:58;;;;;;;29.50;13.23;;;;;;;;;;5014023;28;20366;-71
2022/05/02 06:26:24;;;;;;;37.83;16.33;;;;;;;;;;5014845;28;20045;-73
2022/05/02 06:28:52;;;;;;;40.35;14.57;;;;;;;;;;5015974;28;20104;-73
2022/05/02 06:31:29;;;;;;;34.63;14.32;;;;;;;;;;5013187;28;20029;-73
2022/05/02 06:33:57;;;;;;;40.72;15.80;;;;;;;;;;5021271;28;20026;-72
2022/05/02 06:36:26;;;;;;;37.17;16.38;;;;;;;;;;5011491;28;20061;-73
2022/05/02 06:39:15;;;;;;;31.48;13.25;;;;;;;;;;5009043;28;20032;-72
2022/05/02 06:41:43;;;;;;;37.45;14.88;;;;;;;;;;5007791;28;20037;-72
2022/05/02 06:44:16;;;;;;;31.30;15.18;;;;;;;;;;5007013;28;20034;-72
2022/05/02 06:46:57;;;;;;;29.88;14.27;;;;;;;;;;5009773;28;21338;-72
2022/05/02 06:49:25;;;;;;;24.65;12.23;;;;;;;;;;5006975;28;20028;-72
2022/05/02 06:51:55;;;;;;;32.47;14.10;;;;;;;;;;5013668;28;20377;-70
2022/05/02 06:54:21;;;;;;;27.08;12.30;;;;;;;;;;5018118;28;20065;-72
2022/05/02 06:56:51;;;;;;;30.85;13.45;;;;;;;;;;5012935;28;20175;-73
2022/05/02 06:59:36;;;;;;;25.00;12.07;;;;;;;;;;5019349;28;20025;-73
2022/05/02 07:02:05;;;;;;;19.87;10.60;;;;;;;;;;5015982;28;20109;-72
2022/05/02 07:04:50;;;;;;;20.80;11.05;;;;;;;;;;5019765;28;20109;-73
2022/05/02 07:07:35;;;;;;;24.13;12.55;;;;;;;;;;5013285;28;20092;-73
2022/05/02 07:10:01;;;;;;;23.50;11.52;;;;;;;;;;5018318;28;20029;-72
2022/05/02 07:12:29;;;;;;;22.85;12.43;;;;;;;;;;5010923;28;20049;-73
2022/05/02 07:15:18;;;;;;;24.98;11.55;;;;;;;;;;5016248;28;20094;-72
2022/05/02 07:17:45;;;;;;;23.48;11.57;;;;;;;;;;5025271;28;20085;-72
2022/05/02 07:20:18;;;;;;;22.10;11.55;;;;;;;;;;5023248;28;20026;-73
2022/05/02 07:22:44;;;;;;;21.67;10.82;;;;;;;;;;5016766;28;20033;-72
2022/05/02 07:25:12;;;;;;;21.67;11.63;;;;;;;;;;5017309;28;20057;-76
2022/05/02 07:27:57;;;;;;;19.30;11.05;;;;;;;;;;5011669;28;20030;-72
2022/05/02 07:30:23;;;;;;;20.30;10.38;;;;;;;;;;5019075;28;20034;-72
2022/05/02 07:32:53;;;;;;;16.02;9.32;;;;;;;;;;5016857;28;20456;-72
2022/05/02 07:35:21;;;;;;;19.08;10.07;;;;;;;;;;5013770;28;20074;-72
2022/05/02 07:37:48;;;;;;;16.20;9.07;;;;;;;;;;5012338;28;20050;-72
2022/05/02 07:40:19;;;;;;;16.98;9.70;;;;;;;;;;5018119;28;20072;-72
2022/05/02 07:42:45;;;;;;;15.65;9.27;;;;;;;;;;5007019;28;20034;-73
2022/05/02 07:45:14;;;;;;;18.63;10.52;;;;;;;;;;5017208;28;20042;-72
2022/05/02 07:47:41;;;;;;;19.45;10.38;;;;;;;;;;5024649;28;20101;-72
2022/05/02 07:50:08;;;;;;;19.38;10.73;;;;;;;;;;5014543;28;20034;-73
2022/05/02 07:52:41;;;;;;;20.52;11.77;;;;;;;;;;5017311;28;20567;-72
2022/05/02 07:55:08;;;;;;;19.40;11.40;;;;;;;;;;5020658;28;20356;-73
2022/05/02 07:57:37;;;;;;;19.67;11.48;;;;;;;;;;5019462;28;20034;-73
2022/05/02 08:00:04;;;;;;;18.48;10.43;;;;;;;;;;5019717;28;20043;-73
2022/05/02 08:02:30;;;;;;;20.15;10.55;;;;;;;;;;5017789;28;20030;-74
2022/05/02 08:04:57;;;;;;;16.67;10.88;;;;;;;;;;5018009;28;20109;-75
2022/05/02 08:07:30;;;;;;;19.80;10.32;;;;;;;;;;5020774;28;20098;-71
2022/05/02 08:10:02;;;;;;;15.75;9.05;;;;;;;;;;5034884;28;20115;-72
2022/05/02 08:12:39;;;;;;;15.52;10.00;;;;;;;;;;5023052;28;20017;-72
2022/05/02 08:15:24;;;;;;;17.45;10.05;;;;;;;;;;5017970;28;20108;-72
2022/05/02 08:17:56;;;;;;;15.32;8.82;;;;;;;;;;5015616;28;20045;-73
2022/05/02 08:20:41;;;;;;;13.43;8.18;;;;;;;;;;5019213;28;20072;-73
2022/05/02 08:29:00;;;;;;;17.17;10.15;;;;;;;;;;5014405;28;20093;-73
2022/05/02 08:31:41;;;;;;;15.32;9.40;;;;;;;;;;5010464;28;20068;-75
2022/05/02 08:34:21;;;;;;;16.10;9.82;;;;;;;;;;5014729;28;20018;-76
2022/05/02 08:36:47;;;;;;;16.10;9.75;;;;;;;;;;5018201;28;20032;-75
2022/05/02 08:39:15;;;;;;;12.75;7.60;;;;;;;;;;5017743;28;20033;-76
2022/05/02 08:41:43;;;;;;;16.30;8.90;;;;;;;;;;5020353;28;20057;-75
2022/05/02 08:44:28;;;;;;;12.85;8.02;;;;;;;;;;5015649;28;20030;-75
2022/05/02 08:46:55;;;;;;;14.50;8.70;;;;;;;;;;5018175;28;20076;-75
2022/05/02 08:49:35;;;;;;;15.43;8.10;;;;;;;;;;5019440;28;20086;-74
2022/05/02 08:52:24;;;;;;;14.05;8.02;;;;;;;;;;5015005;28;20026;-75
2022/05/02 08:54:53;;;;;;;14.40;8.73;;;;;;;;;;5016033;28;20041;-75
2022/05/02 08:57:39;;;;;;;12.40;7.63;;;;;;;;;;5018028;28;20044;-74
2022/05/02 09:00:06;;;;;;;;;;;;;;;;;;5016258;28;20105;-76
2022/05/02 09:02:44;;;;;;;14.73;8.23;;;;;;;;;;5018759;28;19924;-76
2022/05/02 09:05:40;;;;;;;15.15;9.23;;;;;;;;;;5012697;28;20138;-75
2022/05/02 09:08:18;;;;;;;13.18;8.18;;;;;;;;;;5003583;28;20089;-75
2022/05/02 09:11:08;;;;;;;11.63;8.32;;;;;;;;;;5020535;28;20045;-78
2022/05/02 09:13:53;;;;;;;13.23;7.82;;;;;;;;;;5006334;28;20053;-76
2022/05/02 09:16:38;;;;;;;13.33;8.57;;;;;;;;;;4993067;28;20149;-74
2022/05/02 09:19:07;;;;;;;14.73;9.63;;;;;;;;;;5003759;28;20320;-73
2022/05/02 09:21:56;;;;;;;13.63;9.75;;;;;;;;;;5000108;28;20109;-72
2022/05/02 09:24:37;;;;;;;13.55;9.05;;;;;;;;;;4989703;28;20045;-72
2022/05/02 09:27:14;;;;;;;12.93;8.20;;;;;;;;;;5002088;28;20057;-74
2022/05/02 09:30:12;;;;;;;14.82;9.48;;;;;;;;;;5006245;28;20040;-74
2022/05/02 09:32:46;;;;;;;13.43;9.95;;;;;;;;;;5004333;28;20048;-73
2022/05/02 09:35:15;;;;;;;13.50;9.77;;;;;;;;;;5004008;28;20020;-73
2022/05/02 09:38:00;;;;;;;14.68;10.23;;;;;;;;;;5006031;28;20034;-73
2022/05/02 09:40:37;;;;;;;14.10;9.98;;;;;;;;;;5003934;28;20045;-73
2022/05/02 09:43:21;;;;;;;17.75;10.63;;;;;;;;;;5001701;28;20052;-73
2022/05/02 09:51:48;;;;;;;15.45;10.77;;;;;;;;;;5000920;28;20092;-73
2022/05/02 09:57:22;;;;;;;15.63;9.60;;;;;;;;;;5000643;28;20036;-73
2022/05/02 10:01:06;;;;;;;15.05;9.48;;;;;;;;;;5005035;28;20034;-73
2022/05/02 10:02:48;;;;;;;14.27;9.73;;;;;;;;;;4998254;28;20100;-73
2022/05/02 10:05:46;;;;;;;12.68;8.98;;;;;;;;;;5001100;28;20116;-73
2022/05/02 10:08:32;;;;;;;14.77;9.30;;;;;;;;;;4952244;28;20042;-71
2022/05/02 10:11:17;;;;;;;12.30;7.90;;;;;;;;;;4997171;28;20113;-74
2022/05/02 10:13:56;;;;;;;11.20;8.07;;;;;;;;;;5006459;28;20018;-73
2022/05/02 10:16:41;;;;;;;13.50;8.95;;;;;;;;;;5005066;28;20386;-73
2022/05/02 10:19:30;;;;;;;10.68;7.65;;;;;;;;;;5017217;28;20322;-73
2022/05/02 10:21:59;;;;;;;11.25;6.82;;;;;;;;;;4994230;28;20188;-73
2022/05/02 10:24:36;;;;;;;9.18;6.57;;;;;;;;;;5002553;28;20493;-75
2022/05/02 10:27:05;;;;;;;8.98;6.72;;;;;;;;;;5002598;28;20065;-73
2022/05/02 10:29:50;;;;;;;10.07;7.43;;;;;;;;;;5004029;28;20034;-73
2022/05/02 10:32:35;;;;;;;9.57;7.03;;;;;;;;;;5003858;28;20018;-72
2022/05/02 10:35:02;;;;;;;7.97;6.10;;;;;;;;;;5005157;28;20030;-72
2022/05/02 10:37:31;;;;;;;9.60;6.68;;;;;;;;;;4998764;28;20137;-73
2022/05/02 10:40:16;;;;;;;8.82;7.00;;;;;;;;;;4999670;28;20468;-73
2022/05/02 10:42:43;;;;;;;;;;;;;;;;;;4999841;28;20033;-74
2022/05/02 10:45:10;;;;;;;12.15;7.10;;;;;;;;;;5004016;28;19933;-73
2022/05/02 10:47:56;;;;;;;10.23;7.32;;;;;;;;;;5000244;28;20049;-73
2022/05/02 10:50:32;;;;;;;8.90;6.95;;;;;;;;;;5001156;28;20033;-73
2022/05/02 10:53:16;;;;;;;11.07;7.10;;;;;;;;;;4999628;28;20036;-73
2022/05/02 10:56:03;;;;;;;9.65;7.10;;;;;;;;;;5001452;28;20033;-73
2022/05/02 10:58:34;;;;;;;10.25;7.13;;;;;;;;;;4997168;28;20052;-73
2022/05/02 11:01:06;;;;;;;8.93;6.93;;;;;;;;;;5005216;28;20072;-72
2022/05/02 11:03:57;;;;;;;9.10;7.45;;;;;;;;;;5003592;28;20059;-74
2022/05/02 11:06:42;;;;;;;9.45;7.25;;;;;;;;;;5006815;28;20050;-73
2022/05/02 11:09:12;;;;;;;10.13;6.97;;;;;;;;;;4997842;28;20042;-73
2022/05/02 11:11:51;;;;;;;9.70;7.22;;;;;;;;;;4996172;28;21189;-73
2022/05/02 11:14:36;;;;;;;9.98;7.32;;;;;;;;;;4995948;28;20042;-73
2022/05/02 11:17:16;;;;;;;10.95;7.20;;;;;;;;;;4997516;28;20093;-73
2022/05/02 11:22:37;;;;;;;8.82;6.85;;;;;;;;;;4994284;28;20130;-74
2022/05/02 11:25:09;;;;;;;11.52;7.05;;;;;;;;;;4997943;28;20026;-73
2022/05/02 11:27:52;;;;;;;8.75;7.07;;;;;;;;;;5014982;28;20079;-72
2022/05/02 11:30:29;;;;;;;7.78;6.20;;;;;;;;;;4998079;28;20034;-72
2022/05/02 11:33:14;;;;;;;7.75;6.47;;;;;;;;;;5001787;28;20491;-73
2022/05/02 11:35:41;;;;;;;8.23;6.40;;;;;;;;;;5002083;28;20037;-73
2022/05/02 11:38:17;;;;;;;9.48;6.78;;;;;;;;;;4998550;28;20030;-73
2022/05/02 11:40:47;;;;;;;9.70;7.40;;;;;;;;;;4998140;28;20400;-73
2022/05/02 11:43:20;;;;;;;8.68;6.57;;;;;;;;;;5003119;28;20048;-73
2022/05/02 11:46:09;;;;;;;11.10;7.45;;;;;;;;;;5001631;28;20042;-74
2022/05/02 11:48:54;;;;;;;11.88;7.18;;;;;;;;;;5004071;28;20025;-73
2022/05/02 11:51:35;;;;;;;8.63;7.00;;;;;;;;;;5007843;28;20037;-74
2022/05/02 11:54:08;;;;;;;9.02;6.82;;;;;;;;;;5010120;28;20112;-73
2022/05/02 11:56:41;;;;;;;10.80;7.20;;;;;;;;;;5005363;28;20444;-74
2022/05/02 11:59:12;;;;;;;11.77;7.55;;;;;;;;;;5001177;28;20516;-73
2022/05/02 12:01:41;;;;;;;7.95;6.40;;;;;;;;;;5004390;28;20069;-72
2022/05/02 12:04:07;;;;;;;9.80;6.75;;;;;;;;;;5006093;28;20030;-74
2022/05/02 12:06:38;;;;;;;8.07;6.55;;;;;;;;;;5003267;28;20048;-73
2022/05/02 12:09:04;;;;;;;8.65;6.95;;;;;;;;;;5004776;28;20117;-73
2022/05/02 12:11:31;;;;;;;8.30;6.63;;;;;;;;;;5004739;28;20756;-74
2022/05/02 12:13:59;;;;;;;7.75;6.05;;;;;;;;;;5002175;28;20120;-73
2022/05/02 12:16:27;;;;;;;8.80;6.40;;;;;;;;;;5001588;28;20108;-73
2022/05/02 12:18:54;;;;;;;7.28;6.00;;;;;;;;;;5008251;28;20302;-73
2022/05/02 12:21:33;;;;;;;7.43;6.43;;;;;;;;;;5000122;28;20051;-73
2022/05/02 12:24:00;;;;;;;7.63;5.75;;;;;;;;;;4999391;28;20030;-74
2022/05/02 12:26:26;;;;;;;6.05;5.07;;;;;;;;;;4998728;28;20052;-73
2022/05/02 12:28:58;;;;;;;6.75;6.00;;;;;;;;;;5004035;28;20025;-73
2022/05/02 12:31:32;;;;;;;6.28;5.53;;;;;;;;;;5001240;28;20026;-74
2022/05/02 12:34:00;;;;;;;8.27;5.47;;;;;;;;;;4998004;28;20022;-73
2022/05/02 12:36:35;;;;;;;6.03;5.43;;;;;;;;;;5007000;28;20038;-73
2022/05/02 12:39:03;;;;;;;4.70;4.18;;;;;;;;;;5004985;28;20093;-73
2022/05/02 12:41:30;;;;;;;6.03;4.90;;;;;;;;;;5004560;28;20048;-74
2022/05/02 12:44:16;;;;;;;6.25;4.93;;;;;;;;;;5003748;28;20053;-74
2022/05/02 12:46:47;;;;;;;5.93;5.32;;;;;;;;;;4998615;28;20030;-75
2022/05/02 12:49:30;;;;;;;7.10;5.18;;;;;;;;;;5003938;28;20124;-75
2022/05/02 12:51:57;;;;;;;5.22;4.50;;;;;;;;;;4997352;28;20034;-76
2022/05/02 12:54:26;;;;;;;6.53;5.03;;;;;;;;;;4999153;28;20559;-75
2022/05/02 13:02:46;;;;;;;5.07;4.40;;;;;;;;;;4999144;28;20087;-74
2022/05/02 13:05:13;;;;;;;5.45;4.68;;;;;;;;;;5001794;28;20052;-74
2022/05/02 13:07:49;;;;;;;6.18;5.10;;;;;;;;;;5004348;28;20107;-75
2022/05/02 13:10:26;;;;;;;5.90;4.80;;;;;;;;;;5003181;28;20473;-75
2022/05/02 13:13:04;;;;;;;4.38;3.97;;;;;;;;;;5003881;28;20526;-75
2022/05/02 13:15:38;;;;;;;4.88;4.18;;;;;;;;;;5007231;28;20054;-76
2022/05/02 13:18:09;;;;;;;6.70;5.40;;;;;;;;;;5003477;28;20037;-76
2022/05/02 13:20:35;;;;;;;6.13;5.03;;;;;;;;;;5003765;28;20029;-76
2022/05/02 13:23:03;;;;;;;5.38;4.88;;;;;;;;;;5003826;28;20030;-77
2022/05/02 13:25:56;;;;;;;5.45;4.63;;;;;;;;;;5006229;28;20030;-76
2022/05/02 13:28:26;;;;;;;5.03;4.47;;;;;;;;;;4980573;28;20077;-76
2022/05/02 13:31:01;;;;;;;5.18;4.60;;;;;;;;;;5003678;28;20026;-76
2022/05/02 13:33:27;;;;;;;;;;;;;;;;;;5005894;28;20264;-76
2022/05/02 13:36:02;;;;;;;5.57;4.43;;;;;;;;;;5002007;28;20014;-76
2022/05/02 13:38:32;;;;;;;5.07;4.30;;;;;;;;;;5009052;28;20029;-75
2022/05/02 13:41:10;;;;;;;5.28;4.78;;;;;;;;;;5004888;28;20022;-76
2022/05/02 13:43:36;;;;;;;5.10;4.40;;;;;;;;;;5005466;28;20126;-76
2022/05/02 13:46:18;;;;;;;4.90;4.10;;;;;;;;;;5003138;28;20457;-76
2022/05/02 13:49:10;;;;;;;4.25;3.65;;;;;;;;;;5005943;28;20439;-75
2022/05/02 13:51:38;;;;;;;6.07;4.15;;;;;;;;;;5004353;28;20423;-76
2022/05/02 13:54:11;;;;;;;5.28;4.40;;;;;;;;;;5003147;28;20029;-76
2022/05/02 13:56:43;;;;;;;4.85;3.67;;;;;;;;;;5005650;28;20029;-76
2022/05/02 13:59:30;;;;;;;6.45;4.45;;;;;;;;;;5004802;28;20082;-75
2022/05/02 14:01:58;;;;;;;6.82;4.65;;;;;;;;;;5001241;28;20270;-75
2022/05/02 14:07:12;;;;;;;5.70;5.07;;;;;;;;;;5013657;28;20057;-75
2022/05/02 14:09:47;;;;;;;5.95;5.35;;;;;;;;;;5002285;28;20040;-76
2022/05/02 14:12:23;;;;;;;6.05;4.10;;;;;;;;;;5004618;28;20041;-76
2022/05/02 14:14:54;;;;;;;6.05;4.97;;;;;;;;;;4998467;28;20065;-76
2022/05/02 14:17:44;;;;;;;5.57;4.40;;;;;;;;;;4998447;28;20061;-75
2022/05/02 14:20:13;;;;;;;6.35;4.20;;;;;;;;;;4997548;28;20038;-75
2022/05/02 14:22:40;;;;;;;5.80;4.80;;;;;;;;;;5006780;28;20389;-76
2022/05/02 14:25:08;;;;;;;7.47;5.20;;;;;;;;;;5009998;28;20369;-75
2022/05/02 14:27:35;;;;;;;7.53;5.93;;;;;;;;;;5003366;28;20216;-76
2022/05/02 14:30:03;;;;;;;7.20;5.72;;;;;;;;;;5010120;28;20021;-75
2022/05/02 14:32:44;;;;;;;6.78;5.88;;;;;;;;;;5010111;28;20030;-74
2022/05/02 14:35:12;;;;;;;7.32;5.50;;;;;;;;;;5007959;28;20053;-75
2022/05/02 14:37:41;;;;;;;6.65;5.78;;;;;;;;;;5010594;28;20503;-76
2022/05/02 14:40:07;;;;;;;8.60;5.80;;;;;;;;;;5008675;28;20480;-75
2022/05/02 14:42:34;;;;;;;6.43;5.13;;;;;;;;;;5001397;28;20036;-75
2022/05/02 14:45:00;;;;;;;7.32;5.90;;;;;;;;;;5003007;28;20482;-75
2022/05/02 14:47:27;;;;;;;8.18;5.95;;;;;;;;;;5003662;28;20072;-75
2022/05/02 14:49:57;;;;;;;7.20;5.55;;;;;;;;;;5002279;28;21455;-75
2022/05/02 14:52:25;;;;;;;9.45;6.63;;;;;;;;;;5006790;28;20037;-75
2022/05/02 14:54:51;;;;;;;7.97;5.97;;;;;;;;;;5003069;28;20109;-76
2022/05/02 14:57:22;;;;;;;6.15;5.05;;;;;;;;;;5005179;28;20045;-76
2022/05/02 14:59:51;;;;;;;7.20;5.70;;;;;;;;;;5012942;28;20129;-77
2022/05/02 15:02:19;;;;;;;7.97;6.03;;;;;;;;;;5010926;28;20141;-76
2022/05/02 15:04:46;;;;;;;7.07;5.55;;;;;;;;;;5011546;28;20062;-75
2022/05/02 15:07:14;;;;;;;7.40;6.30;;;;;;;;;;5013310;28;20116;-75
2022/05/02 15:12:45;;;;;;;7.20;5.55;;;;;;;;;;5015541;28;20041;-75
2022/05/02 15:15:30;;;;;;;6.95;5.05;;;;;;;;;;5012070;28;20152;-74
2022/05/02 15:18:09;;;;;;;7.00;6.28;;;;;;;;;;5012351;28;20048;-74
2022/05/02 15:20:42;;;;;;;8.05;5.47;;;;;;;;;;5009383;28;20117;-75
2022/05/02 15:23:11;;;;;;;7.35;6.20;;;;;;;;;;5009347;28;20052;-75
2022/05/02 15:25:49;;;;;;;7.05;5.20;;;;;;;;;;5007863;28;20069;-74
2022/05/02 15:36:46;;;;;;;7.03;5.43;;;;;;;;;;5002154;28;20096;-75
2022/05/02 15:39:25;;;;;;;7.72;5.68;;;;;;;;;;5006918;28;20272;-75
2022/05/02 15:41:55;;;;;;;7.82;5.75;;;;;;;;;;5006683;28;20037;-77
2022/05/02 15:44:23;;;;;;;7.10;5.50;;;;;;;;;;5006806;28;20116;-78
2022/05/02 15:46:50;;;;;;;6.88;5.63;;;;;;;;;;5008652;28;20033;-77
2022/05/02 15:49:17;;;;;;;6.55;5.82;;;;;;;;;;5005020;28;20038;-76